Time;durP1;ratioP1;P1;durP2;ratioP2;P2;SDS_P1;SDS_P2;PMS_P1;PMS_P2;Temp;Humidity;BMP_temperature;BMP_pressure;BME280_temperature;BME280_humidity;BME280_pressure;Samples;Min_cycle;Max_cycle;Signal;HPM_P1;HPM_P2
2023/09/28 00:01:09;;;;;;;;;;;;;;;;;;5055717;28;19925;-76
2023/09/28 00:03:36;;;;;;;;;;;;;;;;;;5053407;28;20276;-76
2023/09/28 00:06:02;;;;;;;;;;;;;;;;;;5070299;28;19950;-76
2023/09/28 00:08:28;;;;;;;;;;;;;;;;;;5053016;28;19924;-76
2023/09/28 00:10:54;;;;;;;;;;;;;;;;;;5070255;28;19927;-77
2023/09/28 00:13:20;;;;;;;;;;;;;;;;;;5071854;28;20357;-76
2023/09/28 00:15:46;;;;;;;;;;;;;;;;;;5071021;28;20251;-76
2023/09/28 00:18:12;;;;;;;;;;;;;;;;;;5055924;28;20297;-76
2023/09/28 00:20:38;;;;;;;;;;;;;;;;;;5071073;28;19920;-76
2023/09/28 00:23:04;;;;;;;;;;;;;;;;;;5051653;28;19927;-76
2023/09/28 00:25:30;;;;;;;;;;;;;;;;;;5055326;28;20369;-77
2023/09/28 00:27:56;;;;;;;;;;;;;;;;;;5070551;28;19927;-77
2023/09/28 00:30:22;;;;;;;;;;;;;;;;;;5070507;28;19920;-77
2023/09/28 00:32:48;;;;;;;;;;;;;;;;;;5070495;28;19958;-76
2023/09/28 00:35:14;;;;;;;;;;;;;;;;;;5053144;28;20020;-74
2023/09/28 00:37:41;;;;;;;;;;;;;;;;;;5070410;28;19920;-74
2023/09/28 00:40:17;;;;;;;;;;;;;;;;;;5061030;28;19921;-74
2023/09/28 00:42:43;;;;;;;;;;;;;;;;;;5058691;28;19921;-74
2023/09/28 00:45:09;;;;;;;;;;;;;;;;;;5069977;28;20010;-74
2023/09/28 00:47:36;;;;;;;;;;;;;;;;;;5057882;28;20407;-74
2023/09/28 00:50:03;;;;;;;;;;;;;;;;;;5063059;28;19924;-74
2023/09/28 00:52:29;;;;;;;;;;;;;;;;;;5068627;28;19931;-75
2023/09/28 00:54:56;;;;;;;;;;;;;;;;;;5074308;28;19920;-74
2023/09/28 00:57:22;;;;;;;;;;;;;;;;;;5073363;28;19955;-74
2023/09/28 00:59:48;;;;;;;;;;;;;;;;;;5067880;28;19972;-74
2023/09/28 01:02:14;;;;;;;;;;;;;;;;;;5038925;28;20433;-73
2023/09/28 01:04:41;;;;;;;;;;;;;;;;;;5063405;28;20324;-74
2023/09/28 01:07:08;;;;;;;;;;;;;;;;;;5074791;28;19928;-74
2023/09/28 01:09:33;;;;;;;;;;;;;;;;;;5072759;28;19971;-74
2023/09/28 01:12:01;;;;;;;;;;;;;;;;;;5073936;28;19963;-77
2023/09/28 01:14:27;;;;;;;;;;;;;;;;;;5074478;28;19928;-74
2023/09/28 01:16:53;;;;;;;;;;;;;;;;;;5073986;28;19920;-74
2023/09/28 01:19:19;;;;;;;;;;;;;;;;;;5073397;28;19927;-74
2023/09/28 01:21:45;;;;;;;;;;;;;;;;;;5049981;28;19929;-74
2023/09/28 01:24:11;;;;;;;;;;;;;;;;;;5032978;28;20355;-74
2023/09/28 01:26:37;;;;;;;;;;;;;;;;;;5050824;28;19921;-74
2023/09/28 01:29:03;;;;;;;;;;;;;;;;;;5050576;28;19933;-76
2023/09/28 01:31:28;;;;;;;;;;;;;;;;;;5063174;28;19928;-74
2023/09/28 01:33:54;;;;;;;;;;;;;;;;;;5054738;28;19921;-74
2023/09/28 01:36:20;;;;;;;;;;;;;;;;;;5053451;28;19972;-74
2023/09/28 01:38:46;;;;;;;;;;;;;;;;;;5053707;28;19920;-74
2023/09/28 01:41:12;;;;;;;;;;;;;;;;;;5052828;28;19924;-74
2023/09/28 01:43:38;;;;;;;;;;;;;;;;;;5053892;28;19971;-74
2023/09/28 01:46:04;;;;;;;;;;;;;;;;;;5048769;28;20007;-76
2023/09/28 01:48:30;;;;;;;;;;;;;;;;;;5053337;28;19927;-73
2023/09/28 01:50:57;;;;;;;;;;;;;;;;;;5053542;28;19920;-74
2023/09/28 01:53:23;;;;;;;;;;;;;;;;;;5051180;28;19921;-74
2023/09/28 01:55:50;;;;;;;;;;;;;;;;;;5048289;28;20430;-74
2023/09/28 01:58:16;;;;;;;;;;;;;;;;;;5049852;28;20374;-74
2023/09/28 02:00:45;;;;;;;;;;;;;;;;;;5037426;28;19921;-74
2023/09/28 02:03:11;;;;;;;;;;;;;;;;;;5049391;28;20016;-74
2023/09/28 02:05:38;;;;;;;;;;;;;;;;;;5050009;28;20469;-74
2023/09/28 02:08:07;;;;;;;;;;;;;;;;;;5033951;28;20333;-74
2023/09/28 02:10:33;;;;;;;;;;;;;;;;;;5065956;28;19960;-74
2023/09/28 02:12:59;;;;;;;;;;;;;;;;;;5052569;28;19964;-74
2023/09/28 02:15:25;;;;;;;;;;;;;;;;;;5049733;28;19920;-74
2023/09/28 02:17:51;;;;;;;;;;;;;;;;;;5038728;28;19974;-74
2023/09/28 02:20:22;;;;;;;;;;;;;;;;;;5016144;28;19932;-74
2023/09/28 02:22:50;;;;;;;;;;;;;;;;;;5033074;28;19932;-74
2023/09/28 02:25:17;;;;;;;;;;;;;;;;;;5047077;28;19921;-74
2023/09/28 02:27:43;;;;;;;;;;;;;;;;;;5052460;28;20373;-75
2023/09/28 02:30:11;;;;;;;;;;;;;;;;;;5051288;28;19920;-75
2023/09/28 02:32:37;;;;;;;;;;;;;;;;;;5053371;28;20038;-74
2023/09/28 02:35:03;;;;;;;;;;;;;;;;;;5068726;28;19972;-74
2023/09/28 02:37:29;;;;;;;;;;;;;;;;;;5051690;28;19940;-74
2023/09/28 02:39:55;;;;;;;;;;;;;;;;;;5044022;28;20030;-74
2023/09/28 02:42:21;;;;;;;;;;;;;;;;;;5051261;28;19925;-74
2023/09/28 02:44:48;;;;;;;;;;;;;;;;;;5069103;28;20412;-74
2023/09/28 02:47:14;;;;;;;;;;;;;;;;;;5050525;28;19920;-74
2023/09/28 02:49:40;;;;;;;;;;;;;;;;;;5052413;28;20019;-74
2023/09/28 02:52:06;;;;;;;;;;;;;;;;;;5052029;28;20019;-74
2023/09/28 02:54:32;;;;;;;;;;;;;;;;;;5051410;28;19974;-74
2023/09/28 02:56:58;;;;;;;;;;;;;;;;;;5053158;28;19921;-74
2023/09/28 02:59:26;;;;;;;;;;;;;;;;;;5051953;28;19920;-74
2023/09/28 03:01:52;;;;;;;;;;;;;;;;;;5049524;28;20289;-74
2023/09/28 03:04:18;;;;;;;;;;;;;;;;;;5052070;28;19925;-74
2023/09/28 03:06:46;;;;;;;;;;;;;;;;;;5064834;28;20362;-74
2023/09/28 03:09:12;;;;;;;;;;;;;;;;;;5049841;28;20302;-76
2023/09/28 03:11:41;;;;;;;;;;;;;;;;;;5067918;28;19931;-74
2023/09/28 03:14:07;;;;;;;;;;;;;;;;;;5071960;28;19928;-74
2023/09/28 03:16:33;;;;;;;;;;;;;;;;;;5071067;28;19916;-74
2023/09/28 03:19:00;;;;;;;;;;;;;;;;;;5054681;28;19920;-74
2023/09/28 03:21:27;;;;;;;;;;;;;;;;;;5070905;28;19920;-73
2023/09/28 03:23:53;;;;;;;;;;;;;;;;;;5066807;28;19920;-74
2023/09/28 03:26:20;;;;;;;;;;;;;;;;;;5070048;28;19935;-74
2023/09/28 03:28:46;;;;;;;;;;;;;;;;;;5059710;28;19953;-74
2023/09/28 03:31:11;;;;;;;;;;;;;;;;;;5052004;28;19920;-74
2023/09/28 03:33:37;;;;;;;;;;;;;;;;;;5051385;28;19925;-74
2023/09/28 03:36:03;;;;;;;;;;;;;;;;;;5051650;28;19921;-73
2023/09/28 03:38:29;;;;;;;;;;;;;;;;;;5050924;28;19932;-74
2023/09/28 03:40:56;;;;;;;;;;;;;;;;;;5050490;28;19971;-73
2023/09/28 03:43:22;;;;;;;;;;;;;;;;;;5050865;28;19921;-73
2023/09/28 03:45:48;;;;;;;;;;;;;;;;;;5045562;28;19925;-73
2023/09/28 03:48:14;;;;;;;;;;;;;;;;;;5048093;28;19921;-74
2023/09/28 03:50:40;;;;;;;;;;;;;;;;;;5047588;28;19928;-74
2023/09/28 03:53:06;;;;;;;;;;;;;;;;;;5062032;28;19928;-74
2023/09/28 03:55:32;;;;;;;;;;;;;;;;;;5033344;28;20366;-74
2023/09/28 03:57:58;;;;;;;;;;;;;;;;;;5048212;28;20275;-74
2023/09/28 04:00:24;;;;;;;;;;;;;;;;;;5051164;28;19928;-74
2023/09/28 04:02:50;;;;;;;;;;;;;;;;;;5052165;28;19924;-74
2023/09/28 04:05:16;;;;;;;;;;;;;;;;;;5050987;28;19928;-74
2023/09/28 04:07:42;;;;;;;;;;;;;;;;;;5050296;28;19920;-73
2023/09/28 04:10:08;;;;;;;;;;;;;;;;;;5037193;28;20398;-73
2023/09/28 04:12:34;;;;;;;;;;;;;;;;;;5047218;28;19921;-74
2023/09/28 04:15:00;;;;;;;;;;;;;;;;;;5047793;28;19943;-74
2023/09/28 04:17:26;;;;;;;;;;;;;;;;;;5047247;28;19921;-75
2023/09/28 04:19:52;;;;;;;;;;;;;;;;;;5065107;28;19927;-74
2023/09/28 04:22:19;;;;;;;;;;;;;;;;;;5051569;28;19996;-76
2023/09/28 04:24:44;;;;;;;;;;;;;;;;;;5051380;28;19921;-74
2023/09/28 04:27:11;;;;;;;;;;;;;;;;;;5056139;28;19966;-74
2023/09/28 04:29:37;;;;;;;;;;;;;;;;;;5054800;28;19976;-74
2023/09/28 04:32:03;;;;;;;;;;;;;;;;;;5050523;28;19972;-74
2023/09/28 04:34:29;;;;;;;;;;;;;;;;;;5051000;28;20005;-74
2023/09/28 04:36:55;;;;;;;;;;;;;;;;;;5051778;28;19921;-73
2023/09/28 04:39:24;;;;;;;;;;;;;;;;;;5035778;28;20518;-76
2023/09/28 04:41:50;;;;;;;;;;;;;;;;;;5035003;28;19928;-74
2023/09/28 04:44:16;;;;;;;;;;;;;;;;;;5051772;28;19944;-74
2023/09/28 04:46:42;;;;;;;;;;;;;;;;;;5051063;28;20179;-74
2023/09/28 04:49:08;;;;;;;;;;;;;;;;;;5051276;28;19921;-74
2023/09/28 04:51:34;;;;;;;;;;;;;;;;;;5058635;28;20584;-73
2023/09/28 04:54:03;;;;;;;;;;;;;;;;;;5046442;28;19921;-74
2023/09/28 04:56:30;;;;;;;;;;;;;;;;;;5051011;28;20459;-74
2023/09/28 04:58:56;;;;;;;;;;;;;;;;;;5051481;28;20003;-73
2023/09/28 05:01:22;;;;;;;;;;;;;;;;;;5053187;28;20423;-75
2023/09/28 05:03:49;;;;;;;;;;;;;;;;;;5052880;28;19931;-74
2023/09/28 05:06:15;;;;;;;;;;;;;;;;;;5054449;28;19921;-74
2023/09/28 05:08:42;;;;;;;;;;;;;;;;;;5048243;28;20366;-73
2023/09/28 05:11:09;;;;;;;;;;;;;;;;;;5068218;28;19920;-74
2023/09/28 05:13:35;;;;;;;;;;;;;;;;;;5053262;28;19921;-74
2023/09/28 05:16:01;;;;;;;;;;;;;;;;;;5054441;28;19920;-74
2023/09/28 05:18:27;;;;;;;;;;;;;;;;;;5053416;28;19989;-76
2023/09/28 05:20:52;;;;;;;;;;;;;;;;;;5054071;28;19936;-74
2023/09/28 05:23:19;;;;;;;;;;;;;;;;;;5050918;28;19921;-74
2023/09/28 05:25:44;;;;;;;;;;;;;;;;;;5049843;28;19940;-74
2023/09/28 05:28:10;;;;;;;;;;;;;;;;;;5059992;28;19921;-74
2023/09/28 05:30:36;;;;;;;;;;;;;;;;;;5053394;28;19927;-73
2023/09/28 05:33:02;;;;;;;;;;;;;;;;;;5053338;28;19924;-74
2023/09/28 05:35:28;;;;;;;;;;;;;;;;;;5052804;28;20278;-74
2023/09/28 05:37:54;;;;;;;;;;;;;;;;;;5053185;28;19921;-74
2023/09/28 05:40:21;;;;;;;;;;;;;;;;;;5052646;28;19920;-74
2023/09/28 05:42:47;;;;;;;;;;;;;;;;;;5053339;28;20369;-73
2023/09/28 05:45:13;;;;;;;;;;;;;;;;;;5053911;28;19921;-74
2023/09/28 05:47:39;;;;;;;;;;;;;;;;;;5029452;28;19956;-75
2023/09/28 05:50:05;;;;;;;;;;;;;;;;;;5033719;28;19960;-76
2023/09/28 05:52:31;;;;;;;;;;;;;;;;;;5041723;28;19921;-74
2023/09/28 05:54:57;;;;;;;;;;;;;;;;;;5053622;28;19944;-76
2023/09/28 05:57:23;;;;;;;;;;;;;;;;;;5053694;28;20351;-77
2023/09/28 05:59:49;;;;;;;;;;;;;;;;;;5053027;28;20191;-76
2023/09/28 06:02:15;;;;;;;;;;;;;;;;;;5051436;28;19920;-76
2023/09/28 06:04:41;;;;;;;;;;;;;;;;;;5049339;28;19928;-76
2023/09/28 06:07:07;;;;;;;;;;;;;;;;;;5045669;28;19929;-78
2023/09/28 06:09:33;;;;;;;;;;;;;;;;;;5041661;28;20305;-77
2023/09/28 06:12:01;;;;;;;;;;;;;;;;;;5053000;28;19924;-77
2023/09/28 06:14:27;;;;;;;;;;;;;;;;;;5053337;28;20012;-74
2023/09/28 06:16:52;;;;;;;;;;;;;;;;;;5052720;28;20389;-77
2023/09/28 06:19:19;;;;;;;;;;;;;;;;;;5052830;28;19920;-75
2023/09/28 06:21:45;;;;;;;;;;;;;;;;;;5052612;28;19921;-75
2023/09/28 06:24:11;;;;;;;;;;;;;;;;;;5050821;28;19970;-76
2023/09/28 06:26:37;;;;;;;;;;;;;;;;;;5048972;28;19921;-76
2023/09/28 06:29:03;;;;;;;;;;;;;;;;;;5063183;28;19920;-77
2023/09/28 06:31:29;;;;;;;;;;;;;;;;;;5050695;28;19921;-75
2023/09/28 06:33:55;;;;;;;;;;;;;;;;;;5050729;28;19927;-75
2023/09/28 06:36:24;;;;;;;;;;;;;;;;;;5052801;28;20011;-77
2023/09/28 06:38:50;;;;;;;;;;;;;;;;;;5051215;28;19972;-76
2023/09/28 06:41:17;;;;;;;;;;;;;;;;;;5051332;28;19963;-75
2023/09/28 06:43:43;;;;;;;;;;;;;;;;;;5052168;28;19978;-75
2023/09/28 06:46:09;;;;;;;;;;;;;;;;;;5052481;28;19921;-77
2023/09/28 06:48:35;;;;;;;;;;;;;;;;;;5033546;28;19966;-77
2023/09/28 06:51:01;;;;;;;;;;;;;;;;;;5048067;28;20379;-76
2023/09/28 06:53:27;;;;;;;;;;;;;;;;;;5056319;28;19945;-76
2023/09/28 06:55:54;;;;;;;;;;;;;;;;;;5070971;28;19924;-77
2023/09/28 06:58:20;;;;;;;;;;;;;;;;;;5054175;28;19987;-78
2023/09/28 07:00:46;;;;;;;;;;;;;;;;;;5031848;28;19921;-78
2023/09/28 07:03:12;;;;;;;;;;;;;;;;;;5044455;28;19956;-77
2023/09/28 07:05:38;;;;;;;;;;;;;;;;;;5051638;28;19929;-77
2023/09/28 07:08:05;;;;;;;;;;;;;;;;;;5051410;28;19921;-76
2023/09/28 07:10:32;;;;;;;;;;;;;;;;;;5048798;28;20370;-76
2023/09/28 07:13:00;;;;;;;;;;;;;;;;;;5047815;28;20410;-76
2023/09/28 07:15:26;;;;;;;;;;;;;;;;;;5060854;28;19925;-77
2023/09/28 07:17:52;;;;;;;;;;;;;;;;;;5054801;28;19920;-75
2023/09/28 07:20:19;;;;;;;;;;;;;;;;;;5038621;28;19947;-76
2023/09/28 07:22:45;;;;;;;;;;;;;;;;;;5058498;28;19921;-76
2023/09/28 07:25:11;;;;;;;;;;;;;;;;;;5061706;28;19920;-76
2023/09/28 07:27:37;;;;;;;;;;;;;;;;;;5042666;28;19967;-79
2023/09/28 07:30:05;;;;;;;;;;;;;;;;;;5056088;28;20370;-77
2023/09/28 07:32:31;;;;;;;;;;;;;;;;;;5039587;28;19966;-77
2023/09/28 07:34:57;;;;;;;;;;;;;;;;;;5050161;28;20730;-77
2023/09/28 07:37:24;;;;;;;;;;;;;;;;;;5049291;28;19927;-76
2023/09/28 07:39:50;;;;;;;;;;;;;;;;;;5055914;28;19965;-78
2023/09/28 07:42:16;;;;;;;;;;;;;;;;;;5037117;28;19924;-76
2023/09/28 07:44:42;;;;;;;;;;;;;;;;;;5058111;28;19932;-76
2023/09/28 07:47:08;;;;;;;;;;;;;;;;;;5041286;28;19985;-76
2023/09/28 07:49:34;;;;;;;;;;;;;;;;;;5058717;28;19921;-77
2023/09/28 07:52:02;;;;;;;;;;;;;;;;;;5047077;28;19927;-77
2023/09/28 07:54:28;;;;;;;;;;;;;;;;;;5053898;28;20379;-78
2023/09/28 07:56:55;;;;;;;;;;;;;;;;;;5070387;28;19920;-77
2023/09/28 07:59:21;;;;;;;;;;;;;;;;;;5071620;28;19964;-77
2023/09/28 08:01:48;;;;;;;;;;;;;;;;;;5053694;28;20039;-77
2023/09/28 08:04:14;;;;;;;;;;;;;;;;;;5035017;28;19928;-77
2023/09/28 08:06:42;;;;;;;;;;;;;;;;;;5051273;28;19925;-77
2023/09/28 08:09:13;;;;;;;;;;;;;;;;;;5054426;28;19931;-78
2023/09/28 08:11:39;;;;;;;;;;;;;;;;;;5053962;28;19956;-78
2023/09/28 08:14:05;;;;;;;;;;;;;;;;;;5054832;28;20364;-77
2023/09/28 08:16:31;;;;;;;;;;;;;;;;;;5065777;28;19924;-78
2023/09/28 08:18:57;;;;;;;;;;;;;;;;;;5068537;28;19920;-78
2023/09/28 08:21:26;;;;;;;;;;;;;;;;;;5053687;28;19920;-78
2023/09/28 08:23:52;;;;;;;;;;;;;;;;;;5068150;28;19939;-77
2023/09/28 08:26:18;;;;;;;;;;;;;;;;;;5060670;28;19924;-78
2023/09/28 08:28:44;;;;;;;;;;;;;;;;;;5063659;28;20282;-81
2023/09/28 08:31:10;;;;;;;;;;;;;;;;;;5062292;28;19929;-77
2023/09/28 08:33:36;;;;;;;;;;;;;;;;;;5051629;28;19928;-78
2023/09/28 08:36:02;;;;;;;;;;;;;;;;;;5058057;28;19933;-79
2023/09/28 08:38:28;;;;;;;;;;;;;;;;;;5051027;28;20615;-79
2023/09/28 08:40:54;;;;;;;;;;;;;;;;;;5052946;28;19921;-78
2023/09/28 08:43:23;;;;;;;;;;;;;;;;;;5070955;28;19920;-77
2023/09/28 08:45:50;;;;;;;;;;;;;;;;;;5053350;28;20432;-78
2023/09/28 08:48:17;;;;;;;;;;;;;;;;;;5070603;28;20349;-76
2023/09/28 08:50:44;;;;;;;;;;;;;;;;;;5070389;28;19920;-77
2023/09/28 08:53:10;;;;;;;;;;;;;;;;;;5057570;28;19974;-78
2023/09/28 08:55:37;;;;;;;;;;;;;;;;;;5046104;28;20370;-77
2023/09/28 08:58:03;;;;;;;;;;;;;;;;;;5013270;28;19928;-77
2023/09/28 09:00:29;;;;;;;;;;;;;;;;;;5017263;28;19960;-76
2023/09/28 09:02:58;;;;;;;;;;;;;;;;;;5050156;28;19964;-76
2023/09/28 09:05:28;;;;;;;;;;;;;;;;;;5050365;28;19943;-76
2023/09/28 09:07:55;;;;;;;;;;;;;;;;;;5049684;28;19921;-76
2023/09/28 09:10:21;;;;;;;;;;;;;;;;;;5046395;28;20259;-77
2023/09/28 09:12:47;;;;;;;;;;;;;;;;;;5050298;28;19928;-75
2023/09/28 09:15:13;;;;;;;;;;;;;;;;;;5050655;28;19921;-76
2023/09/28 09:17:39;;;;;;;;;;;;;;;;;;5050223;28;20354;-76
2023/09/28 09:20:08;;;;;;;;;;;;;;;;;;5050165;28;19921;-76
2023/09/28 09:22:34;;;;;;;;;;;;;;;;;;5050970;28;19924;-76
2023/09/28 09:25:00;;;;;;;;;;;;;;;;;;5052087;28;19921;-76
2023/09/28 09:27:26;;;;;;;;;;;;;;;;;;5050530;28;19928;-76
2023/09/28 09:29:52;;;;;;;;;;;;;;;;;;5017064;28;19921;-78
2023/09/28 09:32:18;;;;;;;;;;;;;;;;;;5048591;28;19932;-76
2023/09/28 09:34:44;;;;;;;;;;;;;;;;;;5036970;28;19920;-77
2023/09/28 09:37:10;;;;;;;;;;;;;;;;;;5053423;28;20377;-76
2023/09/28 09:39:36;;;;;;;;;;;;;;;;;;5048716;28;19970;-76
2023/09/28 09:42:02;;;;;;;;;;;;;;;;;;5033230;28;19925;-77
2023/09/28 09:44:28;;;;;;;;;;;;;;;;;;5017433;28;19925;-76
2023/09/28 09:46:54;;;;;;;;;;;;;;;;;;5025195;28;19928;-79
2023/09/28 09:49:21;;;;;;;;;;;;;;;;;;5049931;28;19928;-77
2023/09/28 09:51:48;;;;;;;;;;;;;;;;;;5050127;28;20015;-76
2023/09/28 09:54:14;;;;;;;;;;;;;;;;;;5056883;28;20004;-77
2023/09/28 09:56:40;;;;;;;;;;;;;;;;;;5055181;28;19921;-75
2023/09/28 09:59:06;;;;;;;;;;;;;;;;;;5049561;28;19971;-76
2023/09/28 10:01:32;;;;;;;;;;;;;;;;;;5049111;28;19920;-78
2023/09/28 10:03:58;;;;;;;;;;;;;;;;;;5057563;28;20114;-82
2023/09/28 10:06:24;;;;;;;;;;;;;;;;;;5047692;28;19924;-84
2023/09/28 10:08:50;;;;;;;;;;;;;;;;;;5045357;28;19943;-75
2023/09/28 10:11:16;;;;;;;;;;;;;;;;;;5071278;28;19924;-78
2023/09/28 10:13:42;;;;;;;;;;;;;;;;;;5065549;28;19921;-75
2023/09/28 10:16:08;;;;;;;;;;;;;;;;;;5066089;28;19924;-76
2023/09/28 10:18:34;;;;;;;;;;;;;;;;;;5073649;28;19944;-76
2023/09/28 10:21:00;;;;;;;;;;;;;;;;;;5063367;28;19991;-75
2023/09/28 10:23:26;;;;;;;;;;;;;;;;;;5057058;28;19928;-75
2023/09/28 10:25:52;;;;;;;;;;;;;;;;;;5039831;28;19920;-75
2023/09/28 10:28:18;;;;;;;;;;;;;;;;;;5054346;28;19931;-75
2023/09/28 10:30:45;;;;;;;;;;;;;;;;;;5060972;28;19921;-75
2023/09/28 10:33:14;;;;;;;;;;;;;;;;;;5068437;28;19927;-74
2023/09/28 10:35:40;;;;;;;;;;;;;;;;;;5072081;28;19920;-74
2023/09/28 10:38:06;;;;;;;;;;;;;;;;;;5061747;28;19921;-75
2023/09/28 10:40:32;;;;;;;;;;;;;;;;;;5070456;28;19920;-75
2023/09/28 10:42:58;;;;;;;;;;;;;;;;;;5072181;28;20019;-80
2023/09/28 10:45:24;;;;;;;;;;;;;;;;;;5071697;28;20023;-75
2023/09/28 10:47:50;;;;;;;;;;;;;;;;;;5063981;28;19924;-76
2023/09/28 10:50:16;;;;;;;;;;;;;;;;;;5035652;28;19921;-79
2023/09/28 10:52:43;;;;;;;;;;;;;;;;;;5043894;28;20301;-76
2023/09/28 10:55:09;;;;;;;;;;;;;;;;;;5051197;28;19925;-79
2023/09/28 10:57:35;;;;;;;;;;;;;;;;;;5068544;28;19964;-76
2023/09/28 11:00:01;;;;;;;;;;;;;;;;;;5071453;28;19974;-81
2023/09/28 11:02:27;;;;;;;;;;;;;;;;;;5054672;28;19920;-76
2023/09/28 11:04:53;;;;;;;;;;;;;;;;;;5071792;28;20331;-74
2023/09/28 11:07:20;;;;;;;;;;;;;;;;;;5071172;28;19962;-76
2023/09/28 11:09:46;;;;;;;;;;;;;;;;;;5071661;28;19921;-75
2023/09/28 11:12:13;;;;;;;;;;;;;;;;;;5070613;28;19932;-78
2023/09/28 11:14:39;;;;;;;;;;;;;;;;;;5070848;28;20357;-84
2023/09/28 11:17:05;;;;;;;;;;;;;;;;;;5052831;28;19920;-79
2023/09/28 11:19:30;;;;;;;;;;;;;;;;;;5051588;28;20003;-79
2023/09/28 11:21:57;;;;;;;;;;;;;;;;;;5067033;28;20320;-79
2023/09/28 11:24:23;;;;;;;;;;;;;;;;;;5052836;28;19930;-84
2023/09/28 11:26:49;;;;;;;;;;;;;;;;;;5054686;28;19920;-68
2023/09/28 11:29:15;;;;;;;;;;;;;;;;;;5072121;28;19974;-77
2023/09/28 11:31:41;;;;;;;;;;;;;;;;;;5071246;28;19920;-77
2023/09/28 11:34:07;;;;;;;;;;;;;;;;;;5069248;28;19968;-77
2023/09/28 11:36:33;;;;;;;;;;;;;;;;;;5057393;28;19920;-77
2023/09/28 11:38:59;;;;;;;;;;;;;;;;;;5043933;28;19974;-77
2023/09/28 11:41:26;;;;;;;;;;;;;;;;;;5051122;28;19932;-70
2023/09/28 11:43:52;;;;;;;;;;;;;;;;;;5052695;28;19944;-68
2023/09/28 11:46:18;;;;;;;;;;;;;;;;;;5051444;28;20385;-70
2023/09/28 11:48:44;;;;;;;;;;;;;;;;;;5050997;28;19928;-77
2023/09/28 11:51:10;;;;;;;;;;;;;;;;;;5051201;28;19921;-75
2023/09/28 11:53:36;;;;;;;;;;;;;;;;;;5051223;28;19920;-73
2023/09/28 11:56:03;;;;;;;;;;;;;;;;;;5045395;28;19921;-72
2023/09/28 11:58:30;;;;;;;;;;;;;;;;;;5047434;28;19971;-73
2023/09/28 12:00:56;;;;;;;;;;;;;;;;;;5063931;28;20286;-71
2023/09/28 12:03:22;;;;;;;;;;;;;;;;;;5050869;28;19921;-70
2023/09/28 12:05:49;;;;;;;;;;;;;;;;;;5052070;28;19982;-71
2023/09/28 12:08:15;;;;;;;;;;;;;;;;;;5049381;28;19921;-71
2023/09/28 12:10:41;;;;;;;;;;;;;;;;;;5050958;28;19921;-71
2023/09/28 12:13:07;;;;;;;;;;;;;;;;;;5051441;28;19921;-71
2023/09/28 12:15:33;;;;;;;;;;;;;;;;;;5051715;28;20362;-78
2023/09/28 12:17:59;;;;;;;;;;;;;;;;;;5048447;28;20335;-77
2023/09/28 12:20:25;;;;;;;;;;;;;;;;;;5046596;28;19925;-76
2023/09/28 12:22:52;;;;;;;;;;;;;;;;;;5061749;28;20293;-76
2023/09/28 12:25:18;;;;;;;;;;;;;;;;;;5048219;28;20081;-76
2023/09/28 12:27:44;;;;;;;;;;;;;;;;;;5051013;28;19920;-76
2023/09/28 12:30:12;;;;;;;;;;;;;;;;;;5051050;28;19944;-79
2023/09/28 12:32:38;;;;;;;;;;;;;;;;;;5050600;28;20015;-76
2023/09/28 12:35:07;;;;;;;;;;;;;;;;;;5041766;28;20071;-76
2023/09/28 12:37:36;;;;;;;;;;;;;;;;;;5064723;28;19921;-76
2023/09/28 12:40:04;;;;;;;;;;;;;;;;;;5050288;28;19924;-75
2023/09/28 12:42:30;;;;;;;;;;;;;;;;;;5035803;28;20426;-77
2023/09/28 12:44:58;;;;;;;;;;;;;;;;;;5031588;28;19961;-76
2023/09/28 12:47:24;;;;;;;;;;;;;;;;;;5018011;28;19921;-76
2023/09/28 12:49:51;;;;;;;;;;;;;;;;;;5040468;28;20321;-76
2023/09/28 12:52:16;;;;;;;;;;;;;;;;;;5054063;28;19928;-76
2023/09/28 12:54:44;;;;;;;;;;;;;;;;;;5052757;28;19920;-76
2023/09/28 12:57:11;;;;;;;;;;;;;;;;;;5035185;28;19921;-75
2023/09/28 12:59:37;;;;;;;;;;;;;;;;;;5052268;28;19920;-74
2023/09/28 13:02:05;;;;;;;;;;;;;;;;;;5055705;28;19927;-74
2023/09/28 13:04:31;;;;;;;;;;;;;;;;;;5023931;28;19971;-75
2023/09/28 13:06:58;;;;;;;;;;;;;;;;;;5037902;28;19968;-75
2023/09/28 13:09:26;;;;;;;;;;;;;;;;;;5060258;28;19924;-76
2023/09/28 13:11:53;;;;;;;;;;;;;;;;;;5078985;28;20426;-75
2023/09/28 13:14:25;;;;;;;;;;;;;;;;;;5053222;28;20015;-75
2023/09/28 13:16:51;;;;;;;;;;;;;;;;;;5063242;28;19920;-75
2023/09/28 13:19:18;;;;;;;;;;;;;;;;;;5048814;28;20396;-78
2023/09/28 13:21:47;;;;;;;;;;;;;;;;;;5052897;28;20290;-75
2023/09/28 13:24:13;;;;;;;;;;;;;;;;;;5072092;28;20275;-74
2023/09/28 13:26:39;;;;;;;;;;;;;;;;;;5073338;28;19930;-75
2023/09/28 13:29:05;;;;;;;;;;;;;;;;;;5049199;28;20317;-75
2023/09/28 13:31:31;;;;;;;;;;;;;;;;;;5025991;28;19921;-75
2023/09/28 13:33:59;;;;;;;;;;;;;;;;;;5066109;28;19982;-79
2023/09/28 13:36:25;;;;;;;;;;;;;;;;;;5043123;28;19921;-76
2023/09/28 13:38:51;;;;;;;;;;;;;;;;;;5044329;28;20370;-78
2023/09/28 13:41:17;;;;;;;;;;;;;;;;;;5023048;28;20826;-79
2023/09/28 13:43:44;;;;;;;;;;;;;;;;;;4996915;28;19934;-79
2023/09/28 13:46:09;;;;;;;;;;;;;;;;;;5038258;28;19921;-77
2023/09/28 13:48:35;;;;;;;;;;;;;;;;;;5039457;28;20039;-75
2023/09/28 13:51:02;;;;;;;;;;;;;;;;;;5048473;28;20065;-76
2023/09/28 13:53:29;;;;;;;;;;;;;;;;;;5056606;28;19933;-77
2023/09/28 13:55:56;;;;;;;;;;;;;;;;;;5048560;28;20031;-75
2023/09/28 13:58:22;;;;;;;;;;;;;;;;;;5052793;28;19927;-76
2023/09/28 14:00:50;;;;;;;;;;;;;;;;;;5046446;28;19924;-76
2023/09/28 14:03:16;;;;;;;;;;;;;;;;;;5058480;28;20391;-72
2023/09/28 14:05:42;;;;;;;;;;;;;;;;;;5066243;28;19999;-72
2023/09/28 14:08:10;;;;;;;;;;;;;;;;;;5049503;28;19924;-78
2023/09/28 14:10:36;;;;;;;;;;;;;;;;;;5057774;28;19928;-76
2023/09/28 14:13:05;;;;;;;;;;;;;;;;;;5071479;28;20009;-77
2023/09/28 14:15:31;;;;;;;;;;;;;;;;;;5067804;28;19967;-77
2023/09/28 14:17:57;;;;;;;;;;;;;;;;;;5045378;28;19924;-77
2023/09/28 14:20:24;;;;;;;;;;;;;;;;;;5063306;28;19927;-79
2023/09/28 14:22:50;;;;;;;;;;;;;;;;;;5054347;28;19932;-77
2023/09/28 14:25:16;;;;;;;;;;;;;;;;;;5042895;28;20251;-78
2023/09/28 14:27:43;;;;;;;;;;;;;;;;;;5036543;28;19927;-79
2023/09/28 14:30:09;;;;;;;;;;;;;;;;;;5058927;28;20370;-77
2023/09/28 14:32:35;;;;;;;;;;;;;;;;;;5046118;28;20010;-79
2023/09/28 14:35:01;;;;;;;;;;;;;;;;;;5051028;28;19920;-78
2023/09/28 14:37:27;;;;;;;;;;;;;;;;;;5040874;28;19921;-82
2023/09/28 14:39:53;;;;;;;;;;;;;;;;;;5051431;28;19967;-78
2023/09/28 14:42:19;;;;;;;;;;;;;;;;;;5057882;28;19951;-79
2023/09/28 14:44:45;;;;;;;;;;;;;;;;;;5050075;28;19921;-79
2023/09/28 14:47:11;;;;;;;;;;;;;;;;;;5051460;28;19924;-77
2023/09/28 14:49:37;;;;;;;;;;;;;;;;;;5063508;28;19925;-78
2023/09/28 14:52:03;;;;;;;;;;;;;;;;;;5050713;28;19951;-78
2023/09/28 14:54:29;;;;;;;;;;;;;;;;;;5067195;28;19950;-78
2023/09/28 14:56:55;;;;;;;;;;;;;;;;;;5041774;28;19920;-78
2023/09/28 14:59:22;;;;;;;;;;;;;;;;;;5034859;28;19925;-77
2023/09/28 15:01:48;;;;;;;;;;;;;;;;;;5048433;28;19916;-78
2023/09/28 15:04:14;;;;;;;;;;;;;;;;;;5049672;28;19921;-78
2023/09/28 15:06:40;;;;;;;;;;;;;;;;;;5055491;28;19960;-78
2023/09/28 15:09:07;;;;;;;;;;;;;;;;;;5059625;28;19927;-79
2023/09/28 15:11:34;;;;;;;;;;;;;;;;;;5053767;28;19927;-77
2023/09/28 15:13:59;;;;;;;;;;;;;;;;;;5070960;28;19920;-78
2023/09/28 15:16:25;;;;;;;;;;;;;;;;;;5071555;28;20408;-78
2023/09/28 15:18:51;;;;;;;;;;;;;;;;;;5066394;28;19921;-77
2023/09/28 15:21:18;;;;;;;;;;;;;;;;;;5071188;28;19920;-77
2023/09/28 15:23:44;;;;;;;;;;;;;;;;;;5068755;28;19979;-77
2023/09/28 15:26:10;;;;;;;;;;;;;;;;;;5052381;28;19928;-77
2023/09/28 15:28:38;;;;;;;;;;;;;;;;;;5063699;28;19924;-77
2023/09/28 15:31:04;;;;;;;;;;;;;;;;;;5060179;28;19920;-77
2023/09/28 15:33:30;;;;;;;;;;;;;;;;;;5070590;28;19920;-80
2023/09/28 15:35:56;;;;;;;;;;;;;;;;;;5071078;28;19920;-77
2023/09/28 15:38:22;;;;;;;;;;;;;;;;;;5067725;28;20017;-76
2023/09/28 15:40:48;;;;;;;;;;;;;;;;;;5053503;28;20062;-78
2023/09/28 15:43:14;;;;;;;;;;;;;;;;;;5070882;28;19920;-77
2023/09/28 15:45:40;;;;;;;;;;;;;;;;;;5059928;28;19921;-79
2023/09/28 15:48:05;;;;;;;;;;;;;;;;;;5071057;28;19920;-81
2023/09/28 15:50:32;;;;;;;;;;;;;;;;;;5038736;28;19927;-82
2023/09/28 15:52:58;;;;;;;;;;;;;;;;;;5051216;28;19971;-79
2023/09/28 15:55:24;;;;;;;;;;;;;;;;;;5060952;28;19963;-80
2023/09/28 15:57:51;;;;;;;;;;;;;;;;;;5037175;28;19974;-79
2023/09/28 16:00:17;;;;;;;;;;;;;;;;;;5068473;28;19924;-80
2023/09/28 16:02:43;;;;;;;;;;;;;;;;;;5069802;28;20342;-79
2023/09/28 16:05:09;;;;;;;;;;;;;;;;;;5070263;28;20373;-79
2023/09/28 16:07:36;;;;;;;;;;;;;;;;;;5069851;28;20019;-80
2023/09/28 16:10:02;;;;;;;;;;;;;;;;;;5069611;28;19928;-79
2023/09/28 16:12:28;;;;;;;;;;;;;;;;;;5060667;28;19925;-80
2023/09/28 16:14:54;;;;;;;;;;;;;;;;;;5058604;28;20015;-79
2023/09/28 16:17:21;;;;;;;;;;;;;;;;;;5065643;28;20003;-81
2023/09/28 16:19:47;;;;;;;;;;;;;;;;;;5067568;28;19920;-80
2023/09/28 16:22:13;;;;;;;;;;;;;;;;;;5056349;28;19931;-79
2023/09/28 16:24:39;;;;;;;;;;;;;;;;;;5065240;28;19929;-80
2023/09/28 16:27:05;;;;;;;;;;;;;;;;;;5055024;28;20026;-80
2023/09/28 16:29:31;;;;;;;;;;;;;;;;;;5078430;28;19921;-79
2023/09/28 16:31:57;;;;;;;;;;;;;;;;;;5088368;28;20622;-77
2023/09/28 16:34:23;;;;;;;;;;;;;;;;;;5053475;28;20374;-79
2023/09/28 16:36:49;;;;;;;;;;;;;;;;;;5066037;28;20019;-78
2023/09/28 16:39:16;;;;;;;;;;;;;;;;;;5065544;28;20028;-77